San Gabriel, California
Current Conditions -  °F | °C
As of 4:45 PM on Monday 20 Oct 2014 (Local Time) from KEMT Reporting Station
Clear Clear  
Wind Chill: 77°   Ceiling: Unl
Heat Index: 79°   Visibility: 10mi
Dew Point: 61°   Wind: 8mph
Humidity: 57%   Direction: 220°SW
Pressure: 29.87"   Gusts: NA
Location:  34.1°N, 118.1°W
Report Text: KEMT 202345Z 22007KT 10SM CLR 25/16 A2987
Loading
Personal Weather Stations






























Interactive Weather Map
Tropical Storm Tracking
New forecast layout! Learn more

10-Day Weather Forecast

Advertisements
Track Severe Weather on mobile